sensor_id;sensor_type;location;lat;lon;timestamp;temperature;humidity
43414;DHT22;29013;49.676;8.606;2023-04-01T00:00:13;11.4;99.9
43414;DHT22;29013;49.676;8.606;2023-04-01T00:05:34;11.9;99.9
43414;DHT22;29013;49.676;8.606;2023-04-01T00:11:00;11.9;99.9
43414;DHT22;29013;49.676;8.606;2023-04-01T00:16:25;12.0;99.9
43414;DHT22;29013;49.676;8.606;2023-04-01T00:21:49;12.0;99.9
43414;DHT22;29013;49.676;8.606;2023-04-01T00:27:14;12.1;99.9
43414;DHT22;29013;49.676;8.606;2023-04-01T00:32:56;12.1;99.9
43414;DHT22;29013;49.676;8.606;2023-04-01T00:38:18;12.1;99.9
43414;DHT22;29013;49.676;8.606;2023-04-01T00:43:45;12.0;99.9
43414;DHT22;29013;49.676;8.606;2023-04-01T00:49:05;12.0;99.9
43414;DHT22;29013;49.676;8.606;2023-04-01T00:54:30;12.0;99.9
43414;DHT22;29013;49.676;8.606;2023-04-01T00:59:55;12.0;99.9
43414;DHT22;29013;49.676;8.606;2023-04-01T01:05:23;12.0;99.9
43414;DHT22;29013;49.676;8.606;2023-04-01T01:10:42;12.0;99.9
43414;DHT22;29013;49.676;8.606;2023-04-01T01:16:06;12.0;99.9
43414;DHT22;29013;49.676;8.606;2023-04-01T01:21:48;12.0;99.9
43414;DHT22;29013;49.676;8.606;2023-04-01T01:27:13;12.1;99.9
43414;DHT22;29013;49.676;8.606;2023-04-01T01:33:27;11.9;99.9
43414;DHT22;29013;49.676;8.606;2023-04-01T01:38:47;12.2;99.9
43414;DHT22;29013;49.676;8.606;2023-04-01T01:44:12;11.8;99.9
43414;DHT22;29013;49.676;8.606;2023-04-01T01:49:30;11.5;99.9
43414;DHT22;29013;49.676;8.606;2023-04-01T01:55:29;11.4;99.9
43414;DHT22;29013;49.676;8.606;2023-04-01T02:00:48;11.7;99.9
43414;DHT22;29013;49.676;8.606;2023-04-01T02:06:10;11.7;99.9
43414;DHT22;29013;49.676;8.606;2023-04-01T02:11:49;11.8;99.9
43414;DHT22;29013;49.676;8.606;2023-04-01T02:17:11;12.0;99.9
43414;DHT22;29013;49.676;8.606;2023-04-01T02:22:37;12.0;99.9
43414;DHT22;29013;49.676;8.606;2023-04-01T02:28:02;12.0;99.9
43414;DHT22;29013;49.676;8.606;2023-04-01T02:33:27;12.0;99.9
43414;DHT22;29013;49.676;8.606;2023-04-01T02:38:49;12.0;99.9
43414;DHT22;29013;49.676;8.606;2023-04-01T02:44:15;12.0;99.9
43414;DHT22;29013;49.676;8.606;2023-04-01T02:49:40;11.9;99.9
43414;DHT22;29013;49.676;8.606;2023-04-01T02:55:04;11.8;99.9
43414;DHT22;29013;49.676;8.606;2023-04-01T03:00:30;11.7;99.9
43414;DHT22;29013;49.676;8.606;2023-04-01T03:05:56;11.6;99.9
43414;DHT22;29013;49.676;8.606;2023-04-01T03:11:20;11.6;99.9
43414;DHT22;29013;49.676;8.606;2023-04-01T03:16:46;11.6;99.9
43414;DHT22;29013;49.676;8.606;2023-04-01T03:22:11;11.7;99.9
43414;DHT22;29013;49.676;8.606;2023-04-01T03:27:35;11.7;99.9
43414;DHT22;29013;49.676;8.606;2023-04-01T03:32:57;11.8;99.9
43414;DHT22;29013;49.676;8.606;2023-04-01T03:38:18;11.9;99.9
43414;DHT22;29013;49.676;8.606;2023-04-01T03:43:42;11.9;99.9
43414;DHT22;29013;49.676;8.606;2023-04-01T03:49:10;11.8;99.9
43414;DHT22;29013;49.676;8.606;2023-04-01T03:54:33;11.7;99.9
43414;DHT22;29013;49.676;8.606;2023-04-01T04:00:18;11.6;99.9
43414;DHT22;29013;49.676;8.606;2023-04-01T04:05:47;11.7;99.9
43414;DHT22;29013;49.676;8.606;2023-04-01T04:11:10;11.6;99.9
43414;DHT22;29013;49.676;8.606;2023-04-01T04:16:33;11.5;99.9
43414;DHT22;29013;49.676;8.606;2023-04-01T04:21:58;11.4;99.9
43414;DHT22;29013;49.676;8.606;2023-04-01T04:27:20;11.3;99.9
43414;DHT22;29013;49.676;8.606;2023-04-01T04:32:39;11.2;99.9
43414;DHT22;29013;49.676;8.606;2023-04-01T04:37:59;11.0;99.9
43414;DHT22;29013;49.676;8.606;2023-04-01T04:43:20;11.1;99.9
43414;DHT22;29013;49.676;8.606;2023-04-01T04:48:42;11.3;99.9
43414;DHT22;29013;49.676;8.606;2023-04-01T04:54:03;11.5;99.9
43414;DHT22;29013;49.676;8.606;2023-04-01T04:59:27;11.5;99.9
43414;DHT22;29013;49.676;8.606;2023-04-01T05:05:11;11.5;99.9
43414;DHT22;29013;49.676;8.606;2023-04-01T05:10:35;11.7;99.9
43414;DHT22;29013;49.676;8.606;2023-04-01T05:16:01;11.7;99.9
43414;DHT22;29013;49.676;8.606;2023-04-01T05:21:25;11.7;99.9
43414;DHT22;29013;49.676;8.606;2023-04-01T05:26:48;11.8;99.9
43414;DHT22;29013;49.676;8.606;2023-04-01T05:32:14;11.8;99.9
43414;DHT22;29013;49.676;8.606;2023-04-01T05:37:38;11.9;99.9
43414;DHT22;29013;49.676;8.606;2023-04-01T05:43:01;11.9;99.9
43414;DHT22;29013;49.676;8.606;2023-04-01T05:48:25;11.9;99.9
43414;DHT22;29013;49.676;8.606;2023-04-01T05:53:46;11.9;99.9
43414;DHT22;29013;49.676;8.606;2023-04-01T05:59:11;11.8;99.9
43414;DHT22;29013;49.676;8.606;2023-04-01T06:04:37;11.6;99.9
43414;DHT22;29013;49.676;8.606;2023-04-01T06:09:58;11.6;99.9
43414;DHT22;29013;49.676;8.606;2023-04-01T06:15:26;11.7;99.9
43414;DHT22;29013;49.676;8.606;2023-04-01T06:20:47;11.8;99.9
43414;DHT22;29013;49.676;8.606;2023-04-01T06:26:18;11.9;99.9
43414;DHT22;29013;49.676;8.606;2023-04-01T06:31:50;12.0;99.9
43414;DHT22;29013;49.676;8.606;2023-04-01T06:37:21;12.0;99.9
43414;DHT22;29013;49.676;8.606;2023-04-01T06:42:50;12.1;99.9
43414;DHT22;29013;49.676;8.606;2023-04-01T06:48:22;12.1;99.9
43414;DHT22;29013;49.676;8.606;2023-04-01T06:53:42;12.1;99.9
43414;DHT22;29013;49.676;8.606;2023-04-01T06:59:05;12.0;99.9
43414;DHT22;29013;49.676;8.606;2023-04-01T07:04:30;12.1;99.9
43414;DHT22;29013;49.676;8.606;2023-04-01T07:09:55;12.1;99.9
43414;DHT22;29013;49.676;8.606;2023-04-01T07:15:19;12.1;99.9
43414;DHT22;29013;49.676;8.606;2023-04-01T07:20:37;12.2;99.9
43414;DHT22;29013;49.676;8.606;2023-04-01T07:26:04;12.3;99.9
43414;DHT22;29013;49.676;8.606;2023-04-01T07:31:29;12.3;99.9
43414;DHT22;29013;49.676;8.606;2023-04-01T07:36:51;12.2;99.9
43414;DHT22;29013;49.676;8.606;2023-04-01T07:42:19;12.3;99.9
43414;DHT22;29013;49.676;8.606;2023-04-01T07:47:45;12.4;99.9
43414;DHT22;29013;49.676;8.606;2023-04-01T07:53:11;12.4;99.9
43414;DHT22;29013;49.676;8.606;2023-04-01T07:58:38;12.3;99.9
43414;DHT22;29013;49.676;8.606;2023-04-01T08:04:21;12.2;99.9
43414;DHT22;29013;49.676;8.606;2023-04-01T08:10:02;12.2;99.9
43414;DHT22;29013;49.676;8.606;2023-04-01T08:15:23;12.3;99.9
43414;DHT22;29013;49.676;8.606;2023-04-01T08:20:50;12.3;99.9
43414;DHT22;29013;49.676;8.606;2023-04-01T08:26:12;12.2;99.9
43414;DHT22;29013;49.676;8.606;2023-04-01T08:31:34;12.1;99.9
43414;DHT22;29013;49.676;8.606;2023-04-01T08:36:55;12.2;99.9
43414;DHT22;29013;49.676;8.606;2023-04-01T08:48:35;12.4;99.9
43414;DHT22;29013;49.676;8.606;2023-04-01T08:54:08;12.4;99.9
43414;DHT22;29013;49.676;8.606;2023-04-01T08:59:40;12.2;99.9
43414;DHT22;29013;49.676;8.606;2023-04-01T09:05:22;12.2;99.9
43414;DHT22;29013;49.676;8.606;2023-04-01T09:11:07;12.4;99.9
43414;DHT22;29013;49.676;8.606;2023-04-01T09:16:37;12.6;99.9
43414;DHT22;29013;49.676;8.606;2023-04-01T09:27:35;12.7;99.9
43414;DHT22;29013;49.676;8.606;2023-04-01T09:33:03;12.7;99.9
43414;DHT22;29013;49.676;8.606;2023-04-01T09:38:28;12.7;99.9
43414;DHT22;29013;49.676;8.606;2023-04-01T09:43:58;12.8;99.9
43414;DHT22;29013;49.676;8.606;2023-04-01T09:49:40;12.8;99.9
43414;DHT22;29013;49.676;8.606;2023-04-01T09:55:03;12.8;99.9
43414;DHT22;29013;49.676;8.606;2023-04-01T10:00:50;12.6;99.9
43414;DHT22;29013;49.676;8.606;2023-04-01T10:12:19;12.2;99.9
43414;DHT22;29013;49.676;8.606;2023-04-01T10:23:33;12.3;99.9
43414;DHT22;29013;49.676;8.606;2023-04-01T10:29:08;12.4;99.9
43414;DHT22;29013;49.676;8.606;2023-04-01T10:40:40;12.7;99.9
43414;DHT22;29013;49.676;8.606;2023-04-01T10:46:13;12.7;99.9
43414;DHT22;29013;49.676;8.606;2023-04-01T11:09:50;13.5;99.9
43414;DHT22;29013;49.676;8.606;2023-04-01T11:15:27;13.5;99.9
43414;DHT22;29013;49.676;8.606;2023-04-01T11:27:04;13.5;99.9
43414;DHT22;29013;49.676;8.606;2023-04-01T11:32:31;13.3;99.9
43414;DHT22;29013;49.676;8.606;2023-04-01T11:37:55;13.3;99.9
43414;DHT22;29013;49.676;8.606;2023-04-01T11:43:19;13.3;99.9
43414;DHT22;29013;49.676;8.606;2023-04-01T11:48:54;13.4;99.9
43414;DHT22;29013;49.676;8.606;2023-04-01T11:54:18;13.5;99.9
43414;DHT22;29013;49.676;8.606;2023-04-01T11:59:55;13.5;99.9
43414;DHT22;29013;49.676;8.606;2023-04-01T12:05:36;13.6;99.9
43414;DHT22;29013;49.676;8.606;2023-04-01T12:10:55;13.6;99.9
43414;DHT22;29013;49.676;8.606;2023-04-01T12:16:33;13.5;99.9
43414;DHT22;29013;49.676;8.606;2023-04-01T12:22:00;13.6;99.9
43414;DHT22;29013;49.676;8.606;2023-04-01T12:27:37;13.7;99.9
43414;DHT22;29013;49.676;8.606;2023-04-01T12:33:04;13.7;99.9
43414;DHT22;29013;49.676;8.606;2023-04-01T12:38:28;13.6;99.9
43414;DHT22;29013;49.676;8.606;2023-04-01T12:44:07;13.6;99.9
43414;DHT22;29013;49.676;8.606;2023-04-01T12:49:51;13.6;99.9
43414;DHT22;29013;49.676;8.606;2023-04-01T12:55:21;13.7;99.9
43414;DHT22;29013;49.676;8.606;2023-04-01T13:01:02;13.7;99.9
43414;DHT22;29013;49.676;8.606;2023-04-01T13:06:42;13.7;99.9
43414;DHT22;29013;49.676;8.606;2023-04-01T13:12:14;13.7;99.9
43414;DHT22;29013;49.676;8.606;2023-04-01T13:17:34;13.7;99.9
43414;DHT22;29013;49.676;8.606;2023-04-01T13:22:59;13.6;99.9
43414;DHT22;29013;49.676;8.606;2023-04-01T13:28:20;13.6;99.9
43414;DHT22;29013;49.676;8.606;2023-04-01T13:33:47;13.5;99.9
43414;DHT22;29013;49.676;8.606;2023-04-01T13:39:43;13.4;99.9
43414;DHT22;29013;49.676;8.606;2023-04-01T13:45:08;13.5;99.9
43414;DHT22;29013;49.676;8.606;2023-04-01T13:56:39;13.3;99.9
43414;DHT22;29013;49.676;8.606;2023-04-01T14:02:31;13.4;99.9
43414;DHT22;29013;49.676;8.606;2023-04-01T14:07:55;13.5;99.9
43414;DHT22;29013;49.676;8.606;2023-04-01T14:13:21;13.4;99.9
43414;DHT22;29013;49.676;8.606;2023-04-01T14:18:59;13.4;99.9
43414;DHT22;29013;49.676;8.606;2023-04-01T14:24:30;13.3;99.9
43414;DHT22;29013;49.676;8.606;2023-04-01T14:29:59;13.4;99.9
43414;DHT22;29013;49.676;8.606;2023-04-01T14:35:27;13.4;99.9
43414;DHT22;29013;49.676;8.606;2023-04-01T14:41:02;13.4;99.9
43414;DHT22;29013;49.676;8.606;2023-04-01T14:52:16;13.3;99.9
43414;DHT22;29013;49.676;8.606;2023-04-01T14:57:39;13.2;99.9
43414;DHT22;29013;49.676;8.606;2023-04-01T15:03:00;13.2;99.9
43414;DHT22;29013;49.676;8.606;2023-04-01T15:08:24;13.2;99.9
43414;DHT22;29013;49.676;8.606;2023-04-01T15:14:23;13.1;99.9
43414;DHT22;29013;49.676;8.606;2023-04-01T15:19:50;13.3;99.9
43414;DHT22;29013;49.676;8.606;2023-04-01T15:25:27;13.1;99.9
43414;DHT22;29013;49.676;8.606;2023-04-01T15:30:48;13.2;99.9
43414;DHT22;29013;49.676;8.606;2023-04-01T15:36:17;13.2;99.9
43414;DHT22;29013;49.676;8.606;2023-04-01T15:41:43;13.6;99.9
43414;DHT22;29013;49.676;8.606;2023-04-01T15:47:02;13.6;99.9
43414;DHT22;29013;49.676;8.606;2023-04-01T15:52:50;13.5;99.9
43414;DHT22;29013;49.676;8.606;2023-04-01T15:58:28;13.7;99.9
43414;DHT22;29013;49.676;8.606;2023-04-01T16:03:50;13.7;99.9
43414;DHT22;29013;49.676;8.606;2023-04-01T16:15:03;13.5;99.9
43414;DHT22;29013;49.676;8.606;2023-04-01T16:20:25;13.4;99.9
43414;DHT22;29013;49.676;8.606;2023-04-01T16:25:51;13.4;99.9
43414;DHT22;29013;49.676;8.606;2023-04-01T16:32:02;13.3;99.9
43414;DHT22;29013;49.676;8.606;2023-04-01T16:37:31;13.5;99.9
43414;DHT22;29013;49.676;8.606;2023-04-01T16:42:53;13.4;99.9
43414;DHT22;29013;49.676;8.606;2023-04-01T16:48:20;13.2;99.9
43414;DHT22;29013;49.676;8.606;2023-04-01T16:53:45;13.1;99.9
43414;DHT22;29013;49.676;8.606;2023-04-01T16:59:13;13.0;99.9
43414;DHT22;29013;49.676;8.606;2023-04-01T17:05:00;12.9;99.9
43414;DHT22;29013;49.676;8.606;2023-04-01T17:10:35;13.1;99.9
43414;DHT22;29013;49.676;8.606;2023-04-01T17:16:04;13.1;99.9
43414;DHT22;29013;49.676;8.606;2023-04-01T17:21:31;13.0;99.9
43414;DHT22;29013;49.676;8.606;2023-04-01T17:26:51;12.9;99.9
43414;DHT22;29013;49.676;8.606;2023-04-01T17:32:15;12.8;99.9
43414;DHT22;29013;49.676;8.606;2023-04-01T17:37:44;12.8;99.9
43414;DHT22;29013;49.676;8.606;2023-04-01T17:43:10;12.8;99.9
43414;DHT22;29013;49.676;8.606;2023-04-01T17:48:41;12.8;99.9
43414;DHT22;29013;49.676;8.606;2023-04-01T17:54:08;12.8;99.9
43414;DHT22;29013;49.676;8.606;2023-04-01T17:59:33;12.7;99.9
43414;DHT22;29013;49.676;8.606;2023-04-01T18:10:46;12.5;99.9
43414;DHT22;29013;49.676;8.606;2023-04-01T18:16:08;12.5;99.9
43414;DHT22;29013;49.676;8.606;2023-04-01T18:21:29;12.4;99.9
43414;DHT22;29013;49.676;8.606;2023-04-01T18:27:01;12.4;99.9
43414;DHT22;29013;49.676;8.606;2023-04-01T18:32:33;12.5;99.9
43414;DHT22;29013;49.676;8.606;2023-04-01T18:37:55;12.5;99.9
43414;DHT22;29013;49.676;8.606;2023-04-01T18:43:22;12.5;99.9
43414;DHT22;29013;49.676;8.606;2023-04-01T18:48:50;12.5;99.9
43414;DHT22;29013;49.676;8.606;2023-04-01T18:54:16;12.4;99.9
43414;DHT22;29013;49.676;8.606;2023-04-01T18:59:38;12.4;99.9
43414;DHT22;29013;49.676;8.606;2023-04-01T19:05:07;12.4;99.9
43414;DHT22;29013;49.676;8.606;2023-04-01T19:10:35;12.3;99.9
43414;DHT22;29013;49.676;8.606;2023-04-01T19:15:56;12.3;99.9
43414;DHT22;29013;49.676;8.606;2023-04-01T19:21:18;12.2;99.9
43414;DHT22;29013;49.676;8.606;2023-04-01T19:26:43;12.1;99.9
43414;DHT22;29013;49.676;8.606;2023-04-01T19:32:25;11.8;99.9
43414;DHT22;29013;49.676;8.606;2023-04-01T19:37:47;11.8;99.9
43414;DHT22;29013;49.676;8.606;2023-04-01T19:43:13;11.7;99.9
43414;DHT22;29013;49.676;8.606;2023-04-01T19:48:48;11.7;99.9
43414;DHT22;29013;49.676;8.606;2023-04-01T19:54:10;11.7;99.9
43414;DHT22;29013;49.676;8.606;2023-04-01T19:59:33;11.7;99.9
43414;DHT22;29013;49.676;8.606;2023-04-01T20:04:57;11.8;99.9
43414;DHT22;29013;49.676;8.606;2023-04-01T20:10:51;11.8;99.9
43414;DHT22;29013;49.676;8.606;2023-04-01T20:16:14;12.0;99.9
43414;DHT22;29013;49.676;8.606;2023-04-01T20:21:42;12.0;99.9
43414;DHT22;29013;49.676;8.606;2023-04-01T20:27:08;12.0;99.9
43414;DHT22;29013;49.676;8.606;2023-04-01T20:32:41;12.0;99.9
43414;DHT22;29013;49.676;8.606;2023-04-01T20:38:04;12.0;99.9
43414;DHT22;29013;49.676;8.606;2023-04-01T20:43:32;11.8;99.9
43414;DHT22;29013;49.676;8.606;2023-04-01T20:55:37;11.6;99.9
43414;DHT22;29013;49.676;8.606;2023-04-01T21:01:00;11.9;99.9
43414;DHT22;29013;49.676;8.606;2023-04-01T21:06:39;11.8;99.9
43414;DHT22;29013;49.676;8.606;2023-04-01T21:11:59;11.9;99.9
43414;DHT22;29013;49.676;8.606;2023-04-01T21:17:25;11.9;99.9
43414;DHT22;29013;49.676;8.606;2023-04-01T21:22:58;11.9;99.9
43414;DHT22;29013;49.676;8.606;2023-04-01T21:28:38;11.9;99.9
43414;DHT22;29013;49.676;8.606;2023-04-01T21:34:53;11.9;99.9
43414;DHT22;29013;49.676;8.606;2023-04-01T21:46:05;11.7;99.9
43414;DHT22;29013;49.676;8.606;2023-04-01T21:51:48;11.4;99.9
43414;DHT22;29013;49.676;8.606;2023-04-01T22:03:35;11.5;99.9
43414;DHT22;29013;49.676;8.606;2023-04-01T22:09:11;11.6;99.9
43414;DHT22;29013;49.676;8.606;2023-04-01T22:14:36;11.7;99.9
43414;DHT22;29013;49.676;8.606;2023-04-01T22:19:59;11.7;99.9
43414;DHT22;29013;49.676;8.606;2023-04-01T22:25:18;11.6;99.9
43414;DHT22;29013;49.676;8.606;2023-04-01T22:30:43;11.6;99.9
43414;DHT22;29013;49.676;8.606;2023-04-01T22:36:13;11.6;99.9
43414;DHT22;29013;49.676;8.606;2023-04-01T22:41:41;11.6;99.9
43414;DHT22;29013;49.676;8.606;2023-04-01T22:47:06;11.5;99.9
43414;DHT22;29013;49.676;8.606;2023-04-01T22:53:19;11.2;99.9
43414;DHT22;29013;49.676;8.606;2023-04-01T22:58:41;11.1;99.9
43414;DHT22;29013;49.676;8.606;2023-04-01T23:04:07;11.0;99.9
43414;DHT22;29013;49.676;8.606;2023-04-01T23:09:31;11.1;99.9
43414;DHT22;29013;49.676;8.606;2023-04-01T23:14:55;11.2;99.9
43414;DHT22;29013;49.676;8.606;2023-04-01T23:20:52;11.1;99.9
43414;DHT22;29013;49.676;8.606;2023-04-01T23:26:12;11.4;99.9
43414;DHT22;29013;49.676;8.606;2023-04-01T23:31:38;11.3;99.9
43414;DHT22;29013;49.676;8.606;2023-04-01T23:36:58;11.3;99.9
43414;DHT22;29013;49.676;8.606;2023-04-01T23:42:20;11.3;99.9
43414;DHT22;29013;49.676;8.606;2023-04-01T23:47:42;11.3;99.9
43414;DHT22;29013;49.676;8.606;2023-04-01T23:53:08;10.9;99.9
43414;DHT22;29013;49.676;8.606;2023-04-01T23:58:27;10.7;99.9
